createdAt,value
2017-12-31T00:00:46.888Z,93.75
2017-12-31T00:05:51.116Z,89.79
2017-12-31T00:08:29.096Z,89.38
2017-12-31T00:11:16.707Z,88.21
2017-12-31T00:13:45.725Z,87.56
2017-12-31T00:18:49.981Z,85.73
2017-12-31T00:24:00.200Z,83.41
2017-12-31T00:29:13.501Z,82.53
2017-12-31T00:31:42.562Z,82.89
2017-12-31T00:34:11.627Z,83.28
2017-12-31T00:36:48.261Z,82.28
2017-12-31T00:39:17.330Z,82.45
2017-12-31T00:41:46.372Z,81.73
2017-12-31T00:46:50.635Z,81.91
2017-12-31T00:49:25.505Z,80.56
2017-12-31T00:51:58.297Z,79.91
2017-12-31T00:54:27.753Z,80.78
2017-12-31T00:57:02.015Z,79.05
2017-12-31T00:59:31.102Z,79.23
2017-12-31T01:02:01.046Z,79.60
2017-12-31T01:04:30.090Z,79.22
2017-12-31T01:07:08.241Z,79.45
2017-12-31T01:09:37.288Z,78.40
2017-12-31T01:12:09.813Z,79.11
2017-12-31T01:14:38.858Z,79.48
2017-12-31T01:17:08.808Z,79.40
2017-12-31T01:19:37.841Z,77.90
2017-12-31T01:22:08.879Z,77.73
2017-12-31T01:24:38.012Z,77.67
2017-12-31T01:29:42.253Z,77.82
2017-12-31T01:32:23.230Z,77.27
2017-12-31T01:35:01.100Z,77.54
2017-12-31T01:37:30.166Z,76.02
2017-12-31T01:40:12.622Z,76.86
2017-12-31T01:42:41.664Z,76.25
2017-12-31T01:45:23.398Z,75.95
2017-12-31T01:47:52.415Z,75.94
2017-12-31T01:50:23.361Z,76.01
2017-12-31T01:53:00.641Z,75.36
2017-12-31T01:55:29.657Z,76.38
2017-12-31T01:58:20.743Z,75.66
2017-12-31T02:00:50.741Z,75.83
2017-12-31T02:03:23.513Z,74.57
2017-12-31T02:06:06.190Z,74.40
2017-12-31T02:08:35.255Z,75.27
2017-12-31T02:11:04.370Z,74.07
2017-12-31T02:13:35.760Z,74.24
2017-12-31T02:16:05.370Z,75.14
2017-12-31T02:18:34.434Z,75.46
2017-12-31T02:21:03.482Z,74.89
2017-12-31T02:23:32.525Z,74.87
2017-12-31T02:26:01.570Z,73.88
2017-12-31T02:28:30.601Z,75.31
2017-12-31T02:33:34.833Z,73.71
2017-12-31T02:38:39.069Z,72.40
2017-12-31T02:43:43.361Z,73.35
2017-12-31T02:48:48.574Z,72.99
2017-12-31T02:53:52.837Z,73.22
2017-12-31T02:56:22.809Z,73.43
2017-12-31T02:59:04.747Z,73.59
2017-12-31T03:01:33.847Z,73.09
2017-12-31T03:04:24.333Z,73.47
2017-12-31T03:06:53.382Z,73.76
2017-12-31T03:09:23.350Z,73.54
2017-12-31T03:11:52.452Z,74.37
2017-12-31T03:17:07.806Z,72.67
2017-12-31T03:19:36.855Z,72.84
2017-12-31T03:22:13.522Z,73.96
2017-12-31T03:24:42.573Z,73.44
2017-12-31T03:27:13.529Z,73.46
2017-12-31T03:29:42.606Z,73.30
2017-12-31T03:32:15.793Z,73.37
2017-12-31T03:34:48.384Z,73.65
2017-12-31T03:37:17.413Z,73.78
2017-12-31T03:39:46.460Z,74.00
2017-12-31T03:42:23.661Z,74.36
2017-12-31T03:45:07.314Z,73.86
2017-12-31T03:47:36.344Z,73.71
2017-12-31T03:50:18.381Z,74.14
2017-12-31T03:52:51.188Z,74.04
2017-12-31T03:57:59.362Z,73.66
2017-12-31T04:00:28.401Z,73.34
2017-12-31T04:02:57.441Z,73.33
2017-12-31T04:05:26.471Z,72.41
2017-12-31T04:10:30.759Z,71.75
2017-12-31T04:13:00.789Z,71.85
2017-12-31T04:15:29.809Z,71.68
2017-12-31T04:17:58.858Z,71.52
2017-12-31T04:20:27.906Z,71.81
2017-12-31T04:25:32.208Z,71.34
2017-12-31T04:30:36.442Z,70.65
2017-12-31T04:35:40.676Z,71.03
2017-12-31T04:40:45.418Z,69.39
2017-12-31T04:43:16.438Z,70.20
2017-12-31T04:45:45.477Z,69.94
2017-12-31T04:48:23.418Z,70.43
2017-12-31T04:50:52.461Z,70.73
2017-12-31T04:53:21.518Z,70.94
2017-12-31T04:58:27.757Z,67.91
2017-12-31T05:03:32.014Z,69.47
2017-12-31T05:06:01.047Z,67.98
2017-12-31T05:08:30.085Z,68.51
2017-12-31T05:13:34.322Z,67.66
2017-12-31T05:16:15.356Z,67.56
2017-12-31T05:18:48.349Z,67.90
2017-12-31T05:21:24.409Z,68.49
2017-12-31T05:24:03.331Z,67.84
2017-12-31T05:26:32.369Z,66.89
2017-12-31T05:29:01.411Z,67.95
2017-12-31T05:31:30.461Z,67.70
2017-12-31T05:33:59.513Z,66.70
2017-12-31T05:36:28.553Z,66.75
2017-12-31T05:38:57.650Z,66.33
2017-12-31T05:41:29.993Z,66.46
2017-12-31T05:43:59.034Z,66.56
2017-12-31T05:46:31.503Z,66.94
2017-12-31T05:49:00.545Z,67.12
2017-12-31T05:54:04.841Z,66.15
2017-12-31T05:56:37.590Z,65.94
2017-12-31T05:59:09.599Z,66.10
2017-12-31T06:01:38.617Z,65.42
2017-12-31T06:04:08.705Z,65.62
2017-12-31T06:06:41.781Z,65.14
2017-12-31T06:09:24.556Z,65.08
2017-12-31T06:11:53.597Z,65.49
2017-12-31T06:14:34.562Z,65.91
2017-12-31T06:17:03.598Z,65.91
2017-12-31T06:19:46.141Z,65.20
2017-12-31T06:22:30.067Z,65.88
2017-12-31T06:24:59.125Z,66.53
2017-12-31T06:27:30.124Z,65.81
2017-12-31T06:29:59.162Z,66.76
2017-12-31T06:32:35.416Z,66.65
2017-12-31T06:35:04.457Z,65.96
2017-12-31T06:37:33.500Z,67.59
2017-12-31T06:40:02.542Z,66.48
2017-12-31T06:42:31.601Z,67.94
2017-12-31T06:45:00.659Z,67.36
2017-12-31T06:47:33.841Z,67.48
2017-12-31T06:50:02.881Z,67.87
2017-12-31T06:52:31.950Z,67.74
2017-12-31T06:55:00.977Z,68.22
2017-12-31T06:57:32.009Z,68.24
2017-12-31T07:00:01.054Z,68.79
2017-12-31T07:02:35.237Z,69.25
2017-12-31T07:05:04.340Z,69.15
2017-12-31T07:07:33.371Z,68.90
2017-12-31T07:10:02.414Z,68.88
2017-12-31T07:12:31.457Z,68.61
2017-12-31T07:15:00.518Z,68.93
2017-12-31T07:17:29.555Z,69.03
2017-12-31T07:19:58.600Z,68.71
2017-12-31T07:22:27.632Z,69.12
2017-12-31T07:24:56.700Z,69.08
2017-12-31T07:30:08.584Z,68.67
2017-12-31T07:32:37.592Z,68.72
2017-12-31T07:35:07.650Z,69.02
2017-12-31T07:37:36.689Z,68.71
2017-12-31T07:40:05.725Z,68.89
2017-12-31T07:42:35.672Z,69.19
2017-12-31T07:45:04.733Z,69.59
2017-12-31T07:47:33.789Z,69.50
2017-12-31T07:50:02.829Z,69.61
2017-12-31T07:52:31.864Z,70.15
2017-12-31T07:55:00.907Z,70.22
2017-12-31T07:57:29.976Z,69.41
2017-12-31T07:59:59.048Z,69.52
2017-12-31T08:02:28.080Z,70.21
2017-12-31T08:04:57.265Z,69.65
2017-12-31T08:07:26.306Z,69.86
2017-12-31T08:09:55.374Z,69.29
2017-12-31T08:12:28.137Z,69.73
2017-12-31T08:14:57.192Z,69.63
2017-12-31T08:17:26.245Z,69.76
2017-12-31T08:19:55.299Z,69.74
2017-12-31T08:22:24.338Z,69.62
2017-12-31T08:24:53.509Z,69.16
2017-12-31T08:27:22.525Z,69.14
2017-12-31T08:29:51.583Z,68.83
2017-12-31T08:32:20.623Z,68.86
2017-12-31T08:34:49.667Z,67.76
2017-12-31T08:37:18.738Z,68.31
2017-12-31T08:39:47.765Z,67.87
2017-12-31T08:42:16.838Z,67.92
2017-12-31T08:44:45.886Z,67.77
2017-12-31T08:47:14.933Z,67.08
2017-12-31T08:52:19.214Z,66.30
2017-12-31T08:54:48.268Z,61.89
2017-12-31T08:57:17.313Z,60.90
2017-12-31T08:59:46.359Z,57.81
2017-12-31T09:02:15.411Z,58.52
2017-12-31T09:04:48.450Z,58.25
2017-12-31T09:07:17.511Z,57.62
2017-12-31T09:12:21.817Z,55.17
2017-12-31T09:14:52.293Z,54.67
2017-12-31T09:17:21.340Z,55.15
2017-12-31T09:19:50.393Z,53.61
2017-12-31T09:22:19.437Z,55.84
2017-12-31T09:27:23.787Z,54.18
2017-12-31T09:29:52.838Z,53.11
2017-12-31T09:32:21.882Z,53.73
2017-12-31T09:37:26.150Z,52.56
2017-12-31T09:42:30.495Z,51.67
2017-12-31T09:45:01.493Z,53.27
2017-12-31T09:47:30.543Z,53.24
2017-12-31T09:49:59.568Z,53.52
2017-12-31T09:52:58.143Z,53.45
2017-12-31T09:55:27.192Z,53.78
2017-12-31T09:58:01.036Z,54.81
2017-12-31T10:00:30.067Z,54.75
2017-12-31T10:05:34.349Z,56.68
2017-12-31T10:08:03.504Z,56.52
2017-12-31T10:10:32.557Z,57.18
2017-12-31T10:13:01.593Z,55.03
2017-12-31T10:15:30.642Z,54.24
2017-12-31T10:18:00.610Z,57.67
2017-12-31T10:20:29.657Z,58.25
2017-12-31T10:25:33.998Z,57.45
2017-12-31T10:28:03.058Z,56.29
2017-12-31T10:30:32.129Z,55.65
2017-12-31T10:33:01.190Z,54.86
2017-12-31T10:35:30.227Z,54.21
2017-12-31T10:37:59.279Z,53.04
2017-12-31T10:40:28.325Z,52.21
2017-12-31T10:42:57.361Z,51.31
2017-12-31T10:45:26.405Z,51.93
2017-12-31T10:47:55.459Z,50.86
2017-12-31T10:50:24.678Z,49.27
2017-12-31T10:52:54.653Z,47.53
2017-12-31T10:55:23.686Z,49.58
2017-12-31T11:03:15.566Z,47.55
2017-12-31T11:05:45.525Z,49.64
2017-12-31T11:08:15.467Z,48.89
2017-12-31T11:10:44.551Z,48.08
2017-12-31T11:13:13.602Z,48.05
2017-12-31T11:18:17.922Z,50.46
2017-12-31T11:20:46.996Z,49.44
2017-12-31T11:23:16.061Z,48.13
2017-12-31T11:25:45.175Z,49.12
2017-12-31T11:28:15.161Z,47.39
2017-12-31T11:30:48.317Z,48.89
2017-12-31T11:33:17.420Z,48.63
2017-12-31T11:35:46.560Z,47.46
2017-12-31T11:38:15.677Z,47.82
2017-12-31T11:40:44.710Z,46.02
2017-12-31T11:43:13.777Z,45.32
2017-12-31T11:45:42.865Z,44.75
2017-12-31T11:48:11.894Z,45.34
2017-12-31T11:53:16.169Z,43.96
2017-12-31T11:55:45.229Z,43.70
2017-12-31T12:00:49.501Z,42.09
2017-12-31T12:03:18.717Z,43.70
2017-12-31T12:05:47.785Z,45.35
2017-12-31T12:08:16.818Z,45.83
2017-12-31T12:10:45.862Z,46.89
2017-12-31T12:13:14.897Z,47.51
2017-12-31T12:15:43.937Z,48.08
2017-12-31T12:18:12.989Z,49.22
2017-12-31T12:20:42.038Z,49.76
2017-12-31T12:23:11.086Z,52.45
2017-12-31T12:25:43.625Z,52.14
2017-12-31T12:28:12.684Z,51.74
2017-12-31T12:33:17.114Z,51.75
2017-12-31T12:35:46.164Z,52.57
2017-12-31T12:38:15.197Z,51.87
2017-12-31T12:40:45.156Z,51.57
2017-12-31T12:43:14.196Z,51.87
2017-12-31T12:45:44.226Z,50.56
2017-12-31T12:48:13.249Z,50.44
2017-12-31T12:50:42.303Z,49.51
2017-12-31T12:53:11.365Z,50.50
2017-12-31T12:55:45.313Z,51.48
2017-12-31T12:58:14.436Z,50.40
2017-12-31T13:03:18.681Z,50.62
2017-12-31T13:05:47.732Z,48.73
2017-12-31T13:08:17.770Z,48.28
2017-12-31T13:10:46.870Z,49.27
2017-12-31T13:13:15.991Z,48.24
2017-12-31T13:15:45.013Z,46.69
2017-12-31T13:18:14.975Z,44.42
2017-12-31T13:20:44.005Z,44.86
2017-12-31T13:23:13.112Z,45.55
2017-12-31T13:28:17.358Z,43.29
2017-12-31T13:30:46.448Z,43.60
2017-12-31T13:33:15.487Z,43.23
2017-12-31T13:35:44.551Z,42.80
2017-12-31T13:38:13.590Z,41.87
2017-12-31T13:40:43.694Z,43.40
2017-12-31T13:43:13.638Z,41.10
2017-12-31T13:45:42.725Z,42.14
2017-12-31T13:48:11.856Z,44.36
2017-12-31T13:50:41.030Z,45.80
2017-12-31T13:53:10.174Z,46.45
2017-12-31T13:55:39.223Z,47.37
2017-12-31T13:58:08.316Z,48.06
2017-12-31T14:03:12.708Z,48.30
2017-12-31T14:05:41.737Z,47.18
2017-12-31T14:10:46.093Z,51.11
2017-12-31T14:13:15.121Z,51.85
2017-12-31T14:15:44.255Z,52.47
2017-12-31T14:18:15.384Z,54.08
2017-12-31T14:20:44.419Z,55.19
2017-12-31T14:23:14.452Z,55.10
2017-12-31T14:25:43.498Z,56.05
2017-12-31T14:28:13.633Z,55.55
2017-12-31T14:30:43.206Z,55.75
2017-12-31T14:33:14.212Z,57.88
2017-12-31T14:35:43.294Z,56.85
2017-12-31T14:38:13.546Z,58.32
2017-12-31T14:40:42.684Z,58.07
2017-12-31T14:43:11.739Z,58.54
2017-12-31T14:45:40.818Z,58.96
2017-12-31T14:48:10.841Z,59.66
2017-12-31T14:50:40.040Z,60.03
2017-12-31T14:53:12.829Z,59.09
2017-12-31T14:55:41.961Z,59.27
2017-12-31T14:58:11.124Z,59.52
2017-12-31T15:00:40.171Z,59.52
2017-12-31T15:03:09.264Z,60.18
2017-12-31T15:05:38.257Z,59.44
2017-12-31T15:08:07.314Z,60.62
2017-12-31T15:10:39.578Z,60.66
2017-12-31T15:13:12.117Z,61.34
2017-12-31T15:15:41.272Z,61.72
2017-12-31T15:18:10.388Z,61.44
2017-12-31T15:20:39.430Z,61.00
2017-12-31T15:23:09.539Z,61.05
2017-12-31T15:25:38.610Z,62.23
2017-12-31T15:30:42.878Z,66.17
2017-12-31T15:33:12.117Z,64.64
2017-12-31T15:35:46.439Z,67.07
2017-12-31T15:38:15.452Z,66.57
2017-12-31T15:40:44.485Z,68.49
2017-12-31T15:43:14.377Z,70.21
2017-12-31T15:48:18.657Z,71.55
2017-12-31T15:50:47.705Z,70.66
2017-12-31T15:53:16.743Z,70.96
2017-12-31T15:55:48.940Z,72.69
2017-12-31T15:58:18.094Z,71.51
2017-12-31T16:00:48.348Z,71.99
2017-12-31T16:03:17.588Z,70.08
2017-12-31T16:05:46.635Z,68.32
2017-12-31T16:08:15.730Z,70.27
2017-12-31T16:10:44.898Z,70.04
2017-12-31T16:13:13.976Z,70.94
2017-12-31T16:15:43.055Z,71.95
2017-12-31T16:18:12.112Z,72.00
2017-12-31T16:20:41.150Z,74.00
2017-12-31T16:23:10.176Z,75.28
2017-12-31T16:25:40.239Z,72.60
2017-12-31T16:28:09.257Z,72.39
2017-12-31T16:30:45.878Z,72.61
2017-12-31T16:33:14.936Z,72.24
2017-12-31T16:35:43.980Z,75.16
2017-12-31T16:38:13.022Z,78.20
2017-12-31T16:43:17.229Z,81.79
2017-12-31T16:45:46.273Z,83.72
2017-12-31T16:48:15.309Z,85.06
2017-12-31T16:50:44.354Z,83.13
2017-12-31T16:55:50.589Z,80.64
2017-12-31T16:58:19.625Z,80.81
2017-12-31T17:03:23.849Z,78.54
2017-12-31T17:05:52.893Z,76.35
2017-12-31T17:08:21.930Z,76.13
2017-12-31T17:10:55.325Z,80.04
2017-12-31T17:13:24.353Z,83.02
2017-12-31T17:15:53.393Z,78.98
2017-12-31T17:18:23.428Z,81.03
2017-12-31T17:20:52.464Z,80.10
2017-12-31T17:23:21.512Z,80.58
2017-12-31T17:25:50.570Z,83.30
2017-12-31T17:28:19.605Z,80.35
2017-12-31T17:30:48.641Z,80.66
2017-12-31T17:33:18.603Z,78.21
2017-12-31T17:35:47.648Z,78.29
2017-12-31T17:38:16.699Z,78.34
2017-12-31T17:43:20.908Z,80.99
2017-12-31T17:45:49.950Z,80.50
2017-12-31T17:48:18.985Z,80.98
2017-12-31T17:50:49.096Z,79.69
2017-12-31T17:53:18.138Z,81.37
2017-12-31T17:55:47.162Z,82.70
2017-12-31T17:58:16.196Z,86.97
2017-12-31T18:00:45.217Z,86.24
2017-12-31T18:03:15.202Z,87.77
2017-12-31T18:05:44.238Z,87.62
2017-12-31T18:08:15.252Z,86.82
2017-12-31T18:10:44.290Z,86.42
2017-12-31T18:13:16.939Z,85.45
2017-12-31T18:15:45.990Z,85.54
2017-12-31T18:18:15.941Z,84.88
2017-12-31T18:20:44.985Z,85.50
2017-12-31T18:23:18.610Z,83.79
2017-12-31T18:25:47.643Z,83.11
2017-12-31T18:28:16.696Z,83.35
2017-12-31T18:30:45.717Z,80.88
2017-12-31T18:33:14.768Z,83.65
2017-12-31T18:35:43.805Z,82.71
2017-12-31T18:38:12.841Z,81.85
2017-12-31T18:40:41.918Z,80.01
2017-12-31T18:43:12.879Z,85.00
2017-12-31T18:45:41.921Z,83.87
2017-12-31T18:48:10.993Z,83.75
2017-12-31T18:50:40.932Z,85.39
2017-12-31T18:53:09.980Z,85.84
2017-12-31T18:55:40.909Z,84.61
2017-12-31T18:58:09.954Z,85.20
2017-12-31T19:00:39.953Z,84.92
2017-12-31T19:03:08.980Z,83.99
2017-12-31T19:05:38.026Z,85.43
2017-12-31T19:08:15.047Z,85.47
2017-12-31T19:10:44.085Z,83.76
2017-12-31T19:13:16.723Z,82.83
2017-12-31T19:15:46.833Z,82.77
2017-12-31T19:18:15.847Z,83.97
2017-12-31T19:20:54.373Z,83.88
2017-12-31T19:23:23.443Z,86.59
2017-12-31T19:25:52.494Z,87.55
2017-12-31T19:30:57.293Z,89.10
2017-12-31T19:33:26.321Z,89.53
2017-12-31T19:35:55.360Z,88.49
2017-12-31T19:38:25.340Z,85.77
2017-12-31T19:40:54.383Z,86.30
2017-12-31T19:43:23.445Z,85.39
2017-12-31T19:45:53.457Z,87.83
2017-12-31T19:48:22.521Z,89.67
2017-12-31T19:50:51.538Z,87.21
2017-12-31T19:53:20.618Z,84.71
2017-12-31T19:55:53.817Z,87.02
2017-12-31T19:58:22.857Z,85.78
2017-12-31T20:00:55.442Z,87.30
2017-12-31T20:03:26.478Z,86.57
2017-12-31T20:05:59.122Z,88.11
2017-12-31T20:08:28.173Z,88.24
2017-12-31T20:10:57.237Z,88.04
2017-12-31T20:13:28.271Z,87.89
2017-12-31T20:15:57.289Z,88.35
2017-12-31T20:18:26.345Z,88.60
2017-12-31T20:20:58.966Z,89.67
2017-12-31T20:23:29.917Z,89.32
2017-12-31T20:25:58.981Z,88.65
2017-12-31T20:28:30.037Z,89.76
2017-12-31T20:33:35.950Z,88.37
2017-12-31T20:36:05.003Z,87.91
2017-12-31T20:38:34.033Z,88.29
2017-12-31T20:41:03.073Z,88.82
2017-12-31T20:43:32.109Z,88.52
2017-12-31T20:46:01.174Z,87.67
2017-12-31T20:48:38.205Z,86.59
2017-12-31T20:51:07.256Z,87.56
2017-12-31T20:53:36.285Z,88.12
2017-12-31T20:56:05.333Z,87.47
2017-12-31T20:58:34.379Z,86.59
2017-12-31T21:01:03.432Z,86.00
2017-12-31T21:03:39.933Z,86.88
2017-12-31T21:06:08.976Z,86.49
2017-12-31T21:08:38.025Z,87.62
2017-12-31T21:11:07.082Z,88.10
2017-12-31T21:13:40.790Z,89.38
2017-12-31T21:16:09.847Z,88.17
2017-12-31T21:21:14.166Z,88.84
2017-12-31T21:23:46.861Z,89.15
2017-12-31T21:26:15.909Z,89.20
2017-12-31T21:31:24.121Z,88.75
2017-12-31T21:33:55.152Z,88.39
2017-12-31T21:36:27.812Z,87.94
2017-12-31T21:38:56.861Z,87.93
2017-12-31T21:41:27.846Z,89.25
2017-12-31T21:46:37.005Z,87.93
2017-12-31T21:49:06.042Z,88.42
2017-12-31T21:51:40.976Z,87.16
2017-12-31T21:54:09.997Z,86.45
2017-12-31T21:56:39.046Z,86.87
2017-12-31T22:04:15.586Z,86.63
2017-12-31T22:09:19.822Z,87.31
2017-12-31T22:11:48.873Z,86.72
2017-12-31T22:14:17.930Z,88.45
2017-12-31T22:16:53.205Z,88.09
2017-12-31T22:19:22.220Z,88.37
2017-12-31T22:21:53.246Z,87.69
2017-12-31T22:26:57.579Z,87.08
2017-12-31T22:29:26.603Z,87.54
2017-12-31T22:31:57.631Z,88.13
2017-12-31T22:34:26.702Z,87.91
2017-12-31T22:36:55.744Z,87.91
2017-12-31T22:39:28.008Z,87.93
2017-12-31T22:41:57.042Z,87.44
2017-12-31T22:44:27.067Z,88.07
2017-12-31T22:46:57.041Z,87.78
2017-12-31T22:49:26.075Z,86.81
2017-12-31T22:51:55.113Z,89.09
2017-12-31T22:54:24.161Z,89.13
2017-12-31T22:57:04.809Z,89.49
2017-12-31T22:59:33.826Z,89.56
2017-12-31T23:02:03.786Z,89.72
2017-12-31T23:04:32.835Z,89.42
2017-12-31T23:07:17.561Z,89.33
2017-12-31T23:09:46.632Z,88.42
2017-12-31T23:12:16.589Z,88.63
2017-12-31T23:14:45.651Z,87.83
2017-12-31T23:17:15.613Z,87.97
2017-12-31T23:19:44.707Z,88.67
2017-12-31T23:22:13.725Z,88.12
2017-12-31T23:24:42.782Z,88.53
2017-12-31T23:27:11.858Z,87.45
2017-12-31T23:29:40.866Z,87.29
2017-12-31T23:32:09.918Z,88.07
2017-12-31T23:34:38.964Z,87.89
2017-12-31T23:37:08.917Z,87.52
2017-12-31T23:39:37.954Z,87.06
2017-12-31T23:42:12.784Z,87.06
2017-12-31T23:44:41.826Z,86.61
2017-12-31T23:47:10.897Z,86.15
2017-12-31T23:49:39.945Z,86.14
2017-12-31T23:52:11.056Z,86.82
2017-12-31T23:54:40.089Z,86.03
2017-12-31T23:57:09.145Z,85.64
2017-12-31T23:59:38.186Z,85.21
